Latest Weather Observations for Kingaroy

IDQ60901

Issued at 11:21 am EST Thursday 30 June 2016 (issued every 10 minutes, with the page automatically refreshed every 10 minutes)

About weather observations | Map of Brisbane area stations | Latest observations for Brisbane area | Other Formats
Station Details ID: 040922 Name: KINGAROY AIRPORT Lat: -26.57 Lon: 151.84 Height: 433.67 m
Data from the previous 72 hours. | See also: Recent months at Kingaroy
Date/Time
EST
Temp
°C
App
Temp
°C
Dew
Point
°C
Rel
Hum
%
Delta-T
°C
Wind Press
QNH
hPa
Press
MSL
hPa
Rain since
9am
mm
Dir  Spd
km/h
Gust
km/h
Spd
kts
Gust
kts
30/11:00am 17.9 15.2 9.0 56 4.7 NE 13 19 7 10 1024.3 1024.0 0.0
30/10:30am 17.0 14.7 8.9 59 4.3 ENE 11 17 6 9 1024.5 1024.2 0.0
30/10:00am 16.5 14.3 9.4 63 3.8 ENE 11 17 6 9 1024.6 1024.3 0.0
30/09:30am 14.2 14.0 9.2 72 2.6 CALM 0 6 0 3 1024.7 1024.4 0.0
30/09:00am 10.3 9.7 7.5 83 1.4 CALM 0 0 0 0 1024.7 1024.4 -
30/08:30am 7.0 6.2 6.6 97 0.2 CALM 0 0 0 0 1024.8 1024.5 -
30/08:00am 3.7 2.3 3.4 98 0.1 CALM 0 0 0 0 1024.6 1024.3 -
30/07:30am 0.6 -1.4 0.2 97 0.1 CALM 0 0 0 0 1024.4 1024.1 -
30/07:00am -0.3 -2.4 -1.0 95 0.2 CALM 0 0 0 0 1024.1 1023.8 -
30/06:30am -0.2 -2.3 -0.8 96 0.2 CALM 0 0 0 0 1024.1 1023.8 -
30/06:00am -0.3 -2.4 -0.9 96 0.2 CALM 0 0 0 0 1023.9 1023.6 -
30/05:30am -0.3 -2.4 -0.9 96 0.2 CALM 0 0 0 0 1023.8 1023.5 -
30/05:00am -0.3 -2.4 -1.0 95 0.2 CALM 0 0 0 0 1023.7 1023.4 -
30/04:30am 0.1 -3.1 -0.5 96 0.2 SSE 6 7 3 4 1023.5 1023.3 -
30/04:00am -0.3 -2.4 -1.1 94 0.3 CALM 0 0 0 0 1023.5 1023.3 -
30/03:30am 0.2 -1.8 -0.4 96 0.2 CALM 0 0 0 0 1023.5 1023.3 -
30/03:00am 0.2 -3.0 -0.8 93 0.4 S 6 7 3 4 1024.1 1023.8 0.0
30/02:30am 0.5 -1.5 -0.2 95 0.3 CALM 0 0 0 0 1024.4 1024.1 -
30/02:00am 1.4 -0.5 0.7 95 0.3 CALM 0 0 0 0 1024.6 1024.3 -
30/01:30am 1.7 -0.2 0.8 94 0.3 CALM 0 0 0 0 1025.0 1024.7 -
30/01:00am 2.2 0.4 1.3 94 0.4 CALM 0 0 0 0 1025.2 1024.9 -
30/12:30am 1.9 0.0 0.7 92 0.5 CALM 0 0 0 0 1025.3 1025.1 -
30/12:00am 2.4 0.6 1.1 91 0.5 CALM 0 0 0 0 1025.5 1025.3 -
 
Date/Time
EST
Temp
°C
App
Temp
°C
Dew
Point
°C
Rel
Hum
%
Delta-T
°C
Wind Press
QNH
hPa
Press
MSL
hPa
Rain since
9am
mm
Dir  Spd
km/h
Gust
km/h
Spd
kts
Gust
kts
29/11:30pm 3.2 1.4 1.4 88 0.7 CALM 0 0 0 0 1025.6 1025.4 -
29/11:00pm 4.2 2.4 1.2 81 1.2 CALM 0 0 0 0 1025.6 1025.4 -
29/10:30pm 5.8 4.2 2.4 79 1.4 CALM 0 0 0 0 1025.7 1025.5 -
29/10:00pm 6.4 4.8 2.3 75 1.7 CALM 0 0 0 0 1025.8 1025.6 -
29/09:30pm 7.0 5.3 1.9 70 2.1 CALM 0 0 0 0 1025.8 1025.6 -
29/09:00pm 8.4 5.6 1.8 63 2.8 NE 6 9 3 5 1025.7 1025.5 0.0
29/08:30pm 10.2 6.2 3.0 61 3.2 E 13 15 7 8 1025.6 1025.4 -
29/08:00pm 9.4 5.3 2.5 62 3.0 E 13 15 7 8 1025.7 1025.5 -
29/07:30pm 10.8 6.5 3.4 60 3.3 E 15 17 8 9 1025.5 1025.3 -
29/07:00pm 10.8 6.8 2.9 58 3.5 E 13 15 7 8 1025.5 1025.3 -
29/06:30pm 9.4 5.0 2.7 63 2.9 E 15 17 8 9 1025.4 1025.2 -
29/06:00pm 10.8 6.3 2.4 56 3.7 E 15 17 8 9 1025.2 1024.9 -
29/05:30pm 11.0 7.3 2.1 54 3.9 E 11 13 6 7 1025.1 1024.8 -
29/05:00pm 14.4 11.4 2.0 43 5.5 ESE 7 9 4 5 1024.8 1024.5 -
29/04:30pm 16.8 13.2 0.5 33 7.2 SE 9 15 5 8 1024.7 1024.4 -
29/04:00pm 17.6 13.8 2.0 35 7.2 SSE 11 15 6 8 1024.5 1024.2 -
29/03:30pm 17.8 13.5 0.9 32 7.6 S 13 22 7 12 1024.3 1024.0 -
29/03:00pm 17.8 14.4 1.7 34 7.4 SSE 9 17 5 9 1024.3 1024.0 -
29/02:30pm 18.0 14.7 2.3 35 7.3 E 9 15 5 8 1024.3 1024.0 -
29/02:00pm 17.6 13.6 2.8 37 6.9 SE 13 20 7 11 1024.4 1024.1 -
29/12:30pm 17.6 14.2 5.9 46 5.8 SE 13 20 7 11 1025.1 1024.8 0.0
29/12:00pm 16.9 13.0 5.2 46 5.7 E 15 22 8 12 1025.6 1025.4 0.0
29/11:30am 16.3 12.5 5.9 50 5.1 E 15 26 8 14 1026.3 1026.0 0.0
29/11:00am 15.8 11.9 5.4 50 5.0 ESE 15 20 8 11 1026.6 1026.3 0.0
29/10:30am 14.9 10.4 4.3 49 5.0 SE 17 26 9 14 1026.9 1026.6 0.0
29/10:00am 14.7 10.8 5.2 53 4.6 SE 15 20 8 11 1027.2 1026.9 0.0
29/09:30am 11.1 10.2 6.0 71 2.4 CALM 0 4 0 2 1027.3 1027.1 0.0
29/09:00am 8.5 6.6 5.1 79 1.5 NW 4 7 2 4 1027.2 1026.9 0.0
29/08:30am 5.9 3.6 4.9 93 0.4 N 6 7 3 4 1026.9 1026.6 0.0
29/08:00am 3.2 1.7 2.9 98 0.1 CALM 0 0 0 0 1026.8 1026.5 0.0
29/07:30am 0.7 -1.2 0.3 97 0.2 CALM 0 0 0 0 1026.5 1026.2 0.0
29/07:00am 0.2 -1.8 -0.2 97 0.1 CALM 0 0 0 0 1026.4 1026.1 0.0
29/06:30am 0.4 -2.3 0.0 97 0.1 NW 4 7 2 4 1025.9 1025.7 0.0
29/06:00am 0.6 -1.4 0.2 97 0.1 CALM 0 9 0 5 1025.5 1025.3 0.0
29/05:30am 0.2 -2.2 -0.4 96 0.2 NNW 2 6 1 3 1025.1 1024.8 0.0
29/05:00am 0.3 -2.9 -0.3 96 0.2 NW 6 7 3 4 1025.1 1024.8 0.0
29/04:30am 0.9 -1.0 0.3 96 0.2 CALM 0 0 0 0 1025.2 1024.9 0.0
29/04:00am 0.0 -2.1 -0.8 94 0.3 CALM 0 0 0 0 1025.1 1024.8 0.0
29/03:30am 1.6 -0.2 0.9 95 0.3 CALM 0 0 0 0 1025.1 1024.8 0.0
29/03:00am 1.7 -1.5 1.0 95 0.3 S 7 9 4 5 1024.8 1024.5 0.0
29/02:30am 0.9 -1.2 -0.5 90 0.5 CALM 0 4 0 2 1025.2 1024.9 0.0
29/02:00am 1.3 -1.5 -0.5 88 0.7 W 4 7 2 4 1025.3 1025.1 0.0
29/01:30am 5.3 1.8 3.5 88 0.8 S 11 15 6 8 1025.4 1025.2 0.0
29/01:00am 2.2 -0.9 0.3 87 0.7 SSW 6 7 3 4 1025.6 1025.4 0.0
29/12:30am 3.5 0.7 2.0 90 0.6 SSE 6 11 3 6 1025.7 1025.5 0.0
29/12:00am 4.7 1.5 3.2 90 0.6 SSW 9 13 5 7 1025.9 1025.7 0.0
 
Date/Time
EST
Temp
°C
App
Temp
°C
Dew
Point
°C
Rel
Hum
%
Delta-T
°C
Wind Press
QNH
hPa
Press
MSL
hPa
Rain since
9am
mm
Dir  Spd
km/h
Gust
km/h
Spd
kts
Gust
kts
28/11:30pm 3.7 0.3 1.9 88 0.7 SSW 9 11 5 6 1025.8 1025.6 0.0
28/11:00pm 3.6 0.5 1.6 87 0.8 SW 7 9 4 5 1026.1 1025.8 0.0
28/10:30pm 5.1 3.3 3.6 90 0.6 SE 2 9 1 5 1025.9 1025.7 0.0
28/10:00pm 4.0 0.2 1.7 85 0.9 SSW 11 13 6 7 1025.9 1025.7 0.0
28/09:30pm 5.6 2.3 2.6 81 1.3 SSW 9 13 5 7 1026.2 1025.9 0.0
28/09:00pm 5.4 2.6 2.9 84 1.0 W 7 9 4 5 1026.2 1025.9 0.0
28/08:30pm 5.2 2.0 2.9 85 1.0 NE 9 11 5 6 1026.2 1025.9 0.0
28/08:00pm 3.8 0.3 1.0 82 1.1 SSW 9 11 5 6 1025.8 1025.6 0.0
28/07:30pm 3.6 -0.2 1.5 86 0.8 SW 11 13 6 7 1025.5 1025.3 0.0
28/07:00pm 7.1 4.1 2.0 70 2.1 SW 7 9 4 5 1025.3 1025.1 0.0
28/06:30pm 8.2 5.2 2.0 65 2.6 SW 7 9 4 5 1024.7 1024.4 0.0
28/06:00pm 9.1 5.8 2.2 62 3.0 WSW 9 11 5 6 1024.2 1023.9 0.0
28/05:30pm 10.2 6.8 1.8 56 3.6 WSW 9 9 5 5 1023.8 1023.5 0.0
28/05:00pm 11.3 6.3 1.5 51 4.2 SW 17 24 9 13 1023.2 1022.9 0.0
28/04:30pm 12.5 7.2 1.8 48 4.7 SW 19 24 10 13 1022.7 1022.4 0.0
28/04:00pm 13.4 8.0 1.4 44 5.3 SSW 19 28 10 15 1022.6 1022.3 0.0
28/03:30pm 13.7 7.8 1.7 44 5.3 S 22 32 12 17 1022.2 1021.9 0.0
28/03:00pm 13.9 7.9 0.9 41 5.7 SSW 22 30 12 16 1022.1 1021.8 0.0
28/02:30pm 14.4 9.1 2.0 43 5.6 SW 19 30 10 16 1021.8 1021.5 0.0
28/02:00pm 13.6 8.0 1.3 43 5.4 SW 20 32 11 17 1021.9 1021.6 0.0
28/01:30pm 13.7 6.7 2.0 45 5.2 SSW 28 35 15 19 1021.9 1021.6 0.0
28/01:00pm 12.5 5.9 1.8 48 4.7 SW 26 39 14 21 1021.9 1021.6 0.0
28/12:30pm 11.8 4.0 1.7 50 4.4 SSW 32 41 17 22 1022.3 1022.0 0.0
28/12:00pm 11.2 3.9 2.5 55 3.8 SSW 30 37 16 20 1022.5 1022.2 0.0
28/11:30am 10.6 4.4 2.4 57 3.6 SW 24 37 13 20 1022.7 1022.4 0.0
28/11:00am 9.7 3.8 1.8 58 3.4 SSW 22 32 12 17 1023.4 1023.2 0.0
28/10:30am 9.8 4.3 1.7 57 3.5 SW 20 30 11 16 1023.4 1023.2 0.0
28/10:00am 9.2 2.9 1.4 58 3.3 SW 24 32 13 17 1023.5 1023.3 0.0
28/09:30am 8.4 1.7 1.3 61 3.0 SSW 26 33 14 18 1023.5 1023.3 0.0
28/09:00am 7.7 1.1 1.8 66 2.5 SSW 26 33 14 18 1023.4 1023.2 1.0
28/08:30am 6.9 -0.6 1.4 68 2.3 SW 30 39 16 21 1023.2 1022.9 1.0
28/08:00am 6.5 -0.5 1.8 72 1.9 SW 28 33 15 18 1022.9 1022.6 1.0
28/07:30am 5.4 -0.9 1.5 76 1.6 SSW 24 32 13 17 1022.5 1022.2 1.0
28/07:00am 4.7 -0.9 1.4 79 1.3 SSW 20 28 11 15 1022.5 1022.2 1.0
28/06:30am 4.5 -1.4 1.4 80 1.3 SSW 22 30 12 16 1022.2 1021.9 1.0
28/06:00am 4.5 -1.1 1.2 79 1.3 SSW 20 28 11 15 1021.8 1021.5 1.0
28/05:30am 4.4 -1.0 1.3 80 1.2 SSW 19 26 10 14 1021.6 1021.3 1.0
28/05:00am 5.0 -0.6 1.3 77 1.5 SW 20 30 11 16 1021.1 1020.8 1.0
28/04:30am 5.3 1.1 1.4 76 1.6 SW 13 22 7 12 1020.9 1020.6 1.0
28/04:00am 4.9 0.7 1.4 78 1.4 SW 13 17 7 9 1020.8 1020.5 1.0
28/03:30am 5.2 -0.4 1.5 77 1.5 WSW 20 28 11 15 1020.9 1020.6 1.0
28/03:00am 5.3 0.3 1.4 76 1.6 WSW 17 28 9 15 1021.1 1020.8 1.0
28/02:30am 5.6 -0.3 1.5 75 1.7 WSW 22 32 12 17 1021.0 1020.7 1.0
28/02:00am 5.8 0.3 2.1 77 1.5 WSW 20 30 11 16 1020.9 1020.6 1.0
28/01:30am 6.2 2.2 2.8 79 1.4 SW 13 22 7 12 1021.0 1020.7 1.0
28/01:00am 6.2 1.8 2.5 77 1.6 SW 15 20 8 11 1021.0 1020.7 1.0
28/12:30am 6.0 0.8 2.3 77 1.6 SW 19 30 10 16 1020.9 1020.6 1.0
28/12:00am 5.9 1.4 2.4 78 1.5 SSW 15 20 8 11 1020.9 1020.6 1.0
 
Date/Time
EST
Temp
°C
App
Temp
°C
Dew
Point
°C
Rel
Hum
%
Delta-T
°C
Wind Press
QNH
hPa
Press
MSL
hPa
Rain since
9am
mm
Dir  Spd
km/h
Gust
km/h
Spd
kts
Gust
kts
27/11:30pm 6.5 -0.4 2.8 77 1.6 WSW 28 43 15 23 1020.7 1020.4 1.0
27/11:00pm 6.6 1.0 3.4 80 1.4 SW 22 35 12 19 1021.0 1020.7 1.0
27/10:30pm 7.8 2.7 4.2 78 1.6 WSW 20 35 11 19 1020.8 1020.5 1.0
27/10:00pm 8.1 4.1 4.7 79 1.5 WSW 15 20 8 11 1020.7 1020.4 1.0
27/09:30pm 7.9 4.2 4.3 78 1.6 WSW 13 17 7 9 1020.5 1020.2 1.0
27/09:00pm 7.8 3.6 3.8 76 1.8 WSW 15 19 8 10 1020.3 1020.0 1.0
27/08:30pm 8.3 3.1 3.8 73 2.0 WSW 20 30 11 16 1020.2 1019.9 1.0
27/08:00pm 8.5 4.8 4.3 75 1.9 SW 13 20 7 11 1020.1 1019.8 1.0
27/07:30pm 8.7 4.7 5.1 78 1.7 WSW 15 22 8 12 1019.8 1019.5 1.0
27/07:00pm 8.7 4.7 5.1 78 1.6 WSW 15 26 8 14 1019.4 1019.1 1.0
27/06:30pm 9.0 5.2 5.6 79 1.6 WSW 15 20 8 11 1019.3 1018.9 1.0
27/06:00pm 9.2 4.6 5.6 78 1.7 WSW 19 28 10 15 1018.9 1018.5 1.0
27/05:30pm 10.0 5.8 5.8 75 2.0 WSW 17 28 9 15 1018.6 1018.3 1.0
27/05:00pm 10.2 5.7 6.2 76 1.9 WSW 19 28 10 15 1018.2 1017.9 1.0
27/04:30pm 11.0 6.7 6.9 76 2.0 WSW 19 26 10 14 1017.9 1017.6 1.0
27/04:00pm 11.6 6.8 7.3 75 2.1 WSW 22 33 12 18 1017.5 1017.2 1.0
27/03:30pm 11.9 8.1 7.6 75 2.1 WSW 17 28 9 15 1017.1 1016.7 1.0
27/03:00pm 12.5 8.7 7.6 72 2.4 WSW 17 30 9 16 1016.8 1016.4 1.0
27/02:30pm 13.3 9.4 8.8 74 2.3 W 19 26 10 14 1016.4 1016.0 1.0
27/02:00pm 13.0 8.8 8.3 73 2.4 WSW 20 35 11 19 1016.2 1015.9 1.0
27/01:30pm 12.2 7.3 8.5 78 1.9 W 24 32 13 17 1016.4 1016.0 1.0
27/01:00pm 12.0 7.6 8.8 81 1.6 W 22 33 12 18 1016.7 1016.3 1.0
27/12:30pm 11.8 7.9 9.5 86 1.2 WSW 20 30 11 16 1016.9 1016.5 1.0
27/12:00pm 12.1 8.9 10.0 87 1.1 WSW 17 28 9 15 1017.0 1016.6 1.0
27/11:30am 11.6 9.6 10.3 92 0.7 W 11 17 6 9 1017.6 1017.3 1.0

Latest Capital City Observations: Canberra | Sydney | Melbourne | Brisbane | Adelaide | Perth | Hobart | Darwin

Other Formats:

Comma delimited format used in spreadsheet applications
http://www.bom.gov.au/fwo/IDQ60901/IDQ60901.94549.axf

JavaScript Object Notation format (JSON) in row-major order
http://www.bom.gov.au/fwo/IDQ60901/IDQ60901.94549.json